Time;durP1;ratioP1;P1;durP2;ratioP2;P2;SDS_P1;SDS_P2;PMS_P1;PMS_P2;Temp;Humidity;BMP_temperature;BMP_pressure;BME280_temperature;BME280_humidity;BME280_pressure;Samples;Min_cycle;Max_cycle;Signal;HPM_P1;HPM_P2
2023/06/30 00:02:26;;;;;;;4.20;3.60;;;;;;;;;;5082867;28;20471;-63
2023/06/30 00:04:53;;;;;;;4.50;3.90;;;;;;;;;;5080572;28;20496;-63
2023/06/30 00:07:20;;;;;;;4.70;3.60;;;;;;;;;;5082939;28;21045;-63
2023/06/30 00:09:48;;;;;;;4.88;3.67;;;;;;;;;;5075023;28;20445;-63
2023/06/30 00:12:15;;;;;;;5.10;4.05;;;;;;;;;;5076731;28;20496;-63
2023/06/30 00:14:43;;;;;;;5.18;3.97;;;;;;;;;;5082704;28;20886;-63
2023/06/30 00:17:10;;;;;;;3.95;3.53;;;;;;;;;;5077475;28;20411;-63
2023/06/30 00:19:37;;;;;;;4.67;3.00;;;;;;;;;;5080826;28;20423;-63
2023/06/30 00:22:05;;;;;;;4.93;2.70;;;;;;;;;;5080482;28;20465;-63
2023/06/30 00:24:32;;;;;;;4.00;2.63;;;;;;;;;;5080918;28;20428;-65
2023/06/30 00:26:59;;;;;;;2.75;2.35;;;;;;;;;;5082814;28;20448;-63
2023/06/30 00:29:26;;;;;;;3.92;2.55;;;;;;;;;;5081393;28;20423;-63
2023/06/30 00:31:54;;;;;;;4.38;2.13;;;;;;;;;;5080393;28;20419;-63
2023/06/30 00:34:21;;;;;;;4.20;2.10;;;;;;;;;;5076604;28;20486;-63
2023/06/30 00:36:48;;;;;;;7.07;2.13;;;;;;;;;;5082611;28;20409;-63
2023/06/30 00:39:15;;;;;;;4.32;1.90;;;;;;;;;;5079950;28;20407;-63
2023/06/30 00:41:42;;;;;;;3.28;2.00;;;;;;;;;;5075841;28;20829;-63
2023/06/30 00:44:09;;;;;;;5.00;2.00;;;;;;;;;;5082585;28;20414;-63
2023/06/30 00:46:36;;;;;;;3.95;2.30;;;;;;;;;;5076552;28;20411;-63
2023/06/30 00:49:04;;;;;;;6.13;2.40;;;;;;;;;;5080317;28;20919;-63
2023/06/30 00:51:31;;;;;;;5.88;2.55;;;;;;;;;;5081957;28;20410;-63
2023/06/30 00:53:59;;;;;;;7.15;2.83;;;;;;;;;;5080524;28;20461;-63
2023/06/30 00:56:26;;;;;;;6.40;2.95;;;;;;;;;;5079167;28;20807;-63
2023/06/30 00:58:52;;;;;;;5.57;3.00;;;;;;;;;;5078311;28;20406;-63
2023/06/30 01:01:25;;;;;;;5.65;2.97;;;;;;;;;;5081543;28;20414;-63
2023/06/30 01:03:57;;;;;;;5.80;3.10;;;;;;;;;;5076783;28;21074;-63
2023/06/30 01:06:27;;;;;;;6.65;3.58;;;;;;;;;;5079668;28;20412;-63
2023/06/30 01:08:56;;;;;;;6.95;3.60;;;;;;;;;;5079551;28;20489;-63
2023/06/30 01:11:25;;;;;;;5.63;3.15;;;;;;;;;;5074467;28;20825;-63
2023/06/30 01:13:52;;;;;;;8.05;3.42;;;;;;;;;;5080928;28;20417;-63
2023/06/30 01:16:19;;;;;;;7.82;4.25;;;;;;;;;;5081749;28;20409;-63
2023/06/30 01:18:47;;;;;;;7.28;4.07;;;;;;;;;;5075814;28;20404;-63
2023/06/30 01:21:14;;;;;;;8.50;4.22;;;;;;;;;;5078097;28;20912;-63
2023/06/30 01:23:47;;;;;;;8.37;4.70;;;;;;;;;;5081646;28;20413;-63
2023/06/30 01:26:14;;;;;;;8.60;5.07;;;;;;;;;;5081281;28;20426;-63
2023/06/30 01:28:41;;;;;;;8.75;5.72;;;;;;;;;;5077240;28;20771;-63
2023/06/30 01:31:09;;;;;;;8.10;5.30;;;;;;;;;;5079993;28;20465;-63
2023/06/30 01:33:37;;;;;;;9.18;5.28;;;;;;;;;;5077986;28;20431;-63
2023/06/30 01:36:04;;;;;;;10.13;5.32;;;;;;;;;;5078110;28;20963;-63
2023/06/30 01:38:31;;;;;;;9.10;6.05;;;;;;;;;;5078741;28;20412;-63
2023/06/30 01:41:00;;;;;;;10.98;7.05;;;;;;;;;;5070875;28;20496;-63
2023/06/30 01:43:27;;;;;;;11.48;7.57;;;;;;;;;;5080935;28;20544;-63
2023/06/30 01:45:55;;;;;;;12.23;8.10;;;;;;;;;;5078622;28;20968;-63
2023/06/30 01:48:22;;;;;;;12.43;8.02;;;;;;;;;;5079600;28;21012;-63
2023/06/30 01:50:50;;;;;;;12.55;8.27;;;;;;;;;;5081264;28;20459;-63
2023/06/30 01:53:17;;;;;;;14.95;9.25;;;;;;;;;;5078805;28;20415;-64
2023/06/30 01:55:47;;;;;;;13.93;8.70;;;;;;;;;;5070885;28;20924;-64
2023/06/30 01:58:15;;;;;;;13.63;8.60;;;;;;;;;;5075974;28;20517;-62
2023/06/30 02:00:42;;;;;;;11.95;9.05;;;;;;;;;;5078915;28;20472;-63
2023/06/30 02:03:09;;;;;;;12.45;9.65;;;;;;;;;;5081244;28;20463;-63
2023/06/30 02:05:36;;;;;;;16.67;9.73;;;;;;;;;;5080035;28;20413;-62
2023/06/30 02:08:03;;;;;;;14.15;10.13;;;;;;;;;;5079374;28;20417;-64
2023/06/30 02:10:31;;;;;;;18.50;11.32;;;;;;;;;;5076664;28;20480;-63
2023/06/30 02:12:58;;;;;;;18.13;12.68;;;;;;;;;;5081234;28;20449;-64
2023/06/30 02:15:26;;;;;;;18.70;13.55;;;;;;;;;;5075241;28;20433;-63
2023/06/30 02:17:54;;;;;;;19.27;13.15;;;;;;;;;;5078751;28;20458;-64
2023/06/30 02:20:22;;;;;;;18.52;13.40;;;;;;;;;;5074411;28;20868;-63
2023/06/30 02:22:49;;;;;;;19.08;13.32;;;;;;;;;;5078208;28;20430;-64
2023/06/30 02:25:16;;;;;;;19.40;13.88;;;;;;;;;;5074153;28;20481;-64
2023/06/30 02:27:45;;;;;;;21.45;14.35;;;;;;;;;;5080294;28;20876;-63
2023/06/30 02:30:12;;;;;;;20.65;14.07;;;;;;;;;;5080473;28;20494;-63
2023/06/30 02:32:41;;;;;;;22.92;14.65;;;;;;;;;;5077040;28;20493;-63
2023/06/30 02:35:08;;;;;;;22.65;14.82;;;;;;;;;;5080670;28;20525;-64
2023/06/30 02:37:36;;;;;;;21.23;12.95;;;;;;;;;;5075060;28;20476;-64
2023/06/30 02:40:03;;;;;;;21.05;14.93;;;;;;;;;;5078938;28;20442;-62
2023/06/30 02:42:30;;;;;;;21.05;13.95;;;;;;;;;;5075170;28;20458;-64
2023/06/30 02:44:57;;;;;;;18.88;13.82;;;;;;;;;;5080357;28;20414;-62
2023/06/30 02:47:24;;;;;;;20.52;14.40;;;;;;;;;;5080720;28;20752;-64
2023/06/30 02:49:52;;;;;;;21.17;14.40;;;;;;;;;;5073543;28;20435;-63
2023/06/30 02:52:19;;;;;;;21.58;14.43;;;;;;;;;;5080035;28;20409;-63
2023/06/30 02:54:46;;;;;;;21.23;14.93;;;;;;;;;;5078161;28;20888;-63
2023/06/30 02:57:13;;;;;;;22.70;16.07;;;;;;;;;;5076023;28;20480;-63
2023/06/30 02:59:40;;;;;;;21.38;15.60;;;;;;;;;;5078310;28;20457;-64
2023/06/30 03:02:07;;;;;;;23.42;15.82;;;;;;;;;;5079811;28;20948;-63
2023/06/30 03:04:34;;;;;;;24.77;15.65;;;;;;;;;;5080347;28;20410;-64
2023/06/30 03:07:03;;;;;;;24.25;15.63;;;;;;;;;;5079307;28;20415;-64
2023/06/30 03:09:30;;;;;;;22.02;15.30;;;;;;;;;;5079231;28;20431;-63
2023/06/30 03:11:57;;;;;;;23.73;15.07;;;;;;;;;;5083960;28;20564;-64
2023/06/30 03:14:24;;;;;;;21.60;14.82;;;;;;;;;;5082494;28;20850;-62
2023/06/30 03:16:51;;;;;;;20.63;14.07;;;;;;;;;;5082185;28;20415;-63
2023/06/30 03:19:18;;;;;;;20.95;15.60;;;;;;;;;;5084311;28;20413;-64
2023/06/30 03:21:44;;;;;;;18.98;13.60;;;;;;;;;;5082815;28;20418;-63
2023/06/30 03:24:13;;;;;;;20.33;13.27;;;;;;;;;;5078130;28;20506;-64
2023/06/30 03:26:40;;;;;;;17.85;12.23;;;;;;;;;;5083226;28;20480;-64
2023/06/30 03:29:07;;;;;;;16.40;12.07;;;;;;;;;;5081263;28;20465;-63
2023/06/30 03:31:34;;;;;;;16.17;12.73;;;;;;;;;;5078513;28;20903;-64
2023/06/30 03:34:01;;;;;;;21.00;13.17;;;;;;;;;;5080530;28;20412;-63
2023/06/30 03:36:28;;;;;;;22.42;13.88;;;;;;;;;;5081879;28;20495;-64
2023/06/30 03:38:55;;;;;;;20.67;13.52;;;;;;;;;;5078504;28;20784;-63
2023/06/30 03:41:23;;;;;;;24.42;14.20;;;;;;;;;;5081392;28;20419;-63
2023/06/30 03:43:50;;;;;;;20.50;13.77;;;;;;;;;;5075968;28;20494;-62
2023/06/30 03:46:17;;;;;;;25.50;14.02;;;;;;;;;;5083457;28;20410;-62
2023/06/30 03:48:44;;;;;;;19.57;12.10;;;;;;;;;;5081129;28;20477;-61
2023/06/30 03:51:11;;;;;;;18.65;10.90;;;;;;;;;;5081579;28;20521;-62
2023/06/30 03:53:38;;;;;;;17.98;11.55;;;;;;;;;;5081118;28;20471;-62
2023/06/30 03:56:05;;;;;;;20.00;11.73;;;;;;;;;;5081466;28;20761;-62
2023/06/30 03:58:33;;;;;;;20.67;11.40;;;;;;;;;;5081006;28;20416;-62
2023/06/30 04:01:00;;;;;;;15.43;10.57;;;;;;;;;;5079592;28;20454;-62
2023/06/30 04:03:28;;;;;;;20.73;10.80;;;;;;;;;;5082576;28;20512;-63
2023/06/30 04:05:55;;;;;;;21.40;11.40;;;;;;;;;;5080774;28;20412;-62
2023/06/30 04:08:23;;;;;;;18.38;10.82;;;;;;;;;;5078860;28;20418;-62
2023/06/30 04:10:50;;;;;;;18.65;10.95;;;;;;;;;;5076837;28;20932;-62
2023/06/30 04:13:17;;;;;;;23.90;10.65;;;;;;;;;;5081156;28;20465;-62
2023/06/30 04:15:45;;;;;;;18.85;10.18;;;;;;;;;;5081253;28;20413;-62
2023/06/30 04:18:12;;;;;;;17.58;10.35;;;;;;;;;;5076668;28;20855;-62
2023/06/30 04:20:39;;;;;;;18.17;10.18;;;;;;;;;;5082190;28;20411;-62
2023/06/30 04:23:06;;;;;;;17.75;9.63;;;;;;;;;;5078915;28;20434;-63
2023/06/30 04:25:33;;;;;;;14.65;9.73;;;;;;;;;;5076312;28;20421;-62
2023/06/30 04:28:00;;;;;;;13.63;8.93;;;;;;;;;;5082448;28;20905;-63
2023/06/30 04:30:27;;;;;;;18.88;8.98;;;;;;;;;;5076194;28;20423;-62
2023/06/30 04:32:55;;;;;;;14.03;8.80;;;;;;;;;;5081242;28;20941;-62
2023/06/30 04:35:25;;;;;;;15.90;9.27;;;;;;;;;;5078781;28;20464;-63
2023/06/30 04:37:52;;;;;;;18.73;10.18;;;;;;;;;;5079638;28;20539;-62
2023/06/30 04:40:19;;;;;;;18.17;8.95;;;;;;;;;;5079476;28;20892;-63
2023/06/30 04:42:46;;;;;;;14.43;8.18;;;;;;;;;;5077398;28;20440;-63
2023/06/30 04:45:13;;;;;;;18.13;8.10;;;;;;;;;;5083953;28;20409;-62
2023/06/30 04:47:40;;;;;;;14.00;8.20;;;;;;;;;;5072495;28;20489;-62
2023/06/30 04:50:09;;;;;;;12.60;7.95;;;;;;;;;;5068719;28;20427;-62
2023/06/30 04:52:36;;;;;;;15.85;8.23;;;;;;;;;;5073794;28;20467;-62
2023/06/30 04:55:03;;;;;;;14.70;7.53;;;;;;;;;;5081369;28;20419;-62
2023/06/30 04:57:30;;;;;;;17.17;8.15;;;;;;;;;;5078436;28;20710;-61
2023/06/30 04:59:57;;;;;;;12.88;7.50;;;;;;;;;;5081688;28;20402;-62
2023/06/30 05:02:24;;;;;;;13.10;7.03;;;;;;;;;;5081098;28;20894;-64
2023/06/30 05:04:51;;;;;;;15.77;7.10;;;;;;;;;;5077523;28;20416;-63
2023/06/30 05:07:20;;;;;;;16.02;8.20;;;;;;;;;;5077982;28;20415;-64
2023/06/30 05:09:47;;;;;;;19.55;8.63;;;;;;;;;;5078505;28;20546;-63
2023/06/30 05:12:15;;;;;;;13.05;7.15;;;;;;;;;;5080544;28;20418;-64
2023/06/30 05:14:42;;;;;;;15.65;6.95;;;;;;;;;;5081890;28;20423;-64
2023/06/30 05:17:09;;;;;;;14.95;7.40;;;;;;;;;;5081341;28;20478;-63
2023/06/30 05:19:36;;;;;;;14.27;6.90;;;;;;;;;;5062319;28;20512;-63
2023/06/30 05:22:03;;;;;;;14.73;6.22;;;;;;;;;;5067320;28;20413;-62
2023/06/30 05:24:33;;;;;;;14.23;5.85;;;;;;;;;;5076061;28;20421;-61
2023/06/30 05:27:00;;;;;;;9.77;5.25;;;;;;;;;;5080916;28;20939;-62
2023/06/30 05:29:27;;;;;;;12.93;5.63;;;;;;;;;;5076022;28;20421;-62
2023/06/30 05:31:54;;;;;;;15.40;5.47;;;;;;;;;;5079901;28;20417;-62
2023/06/30 05:34:21;;;;;;;14.38;4.97;;;;;;;;;;5075255;28;20465;-63
2023/06/30 05:36:48;;;;;;;12.48;5.25;;;;;;;;;;5077809;28;20430;-61
2023/06/30 05:39:15;;;;;;;9.15;5.00;;;;;;;;;;5068466;28;20919;-59
2023/06/30 05:41:43;;;;;;;13.10;5.28;;;;;;;;;;5070362;28;20423;-62
2023/06/30 05:44:10;;;;;;;14.25;5.32;;;;;;;;;;5076407;28;20858;-62
2023/06/30 05:46:38;;;;;;;9.70;4.72;;;;;;;;;;5078631;28;20481;-60
2023/06/30 05:49:05;;;;;;;9.03;4.60;;;;;;;;;;5078316;28;20506;-62
2023/06/30 05:51:33;;;;;;;14.83;4.83;;;;;;;;;;5076535;28;20537;-63
2023/06/30 05:54:00;;;;;;;10.85;4.60;;;;;;;;;;5079308;28;20481;-65
2023/06/30 05:56:27;;;;;;;13.27;5.03;;;;;;;;;;5073863;28;20415;-65
2023/06/30 05:58:56;;;;;;;9.98;4.53;;;;;;;;;;5070570;28;20480;-64
2023/06/30 06:01:23;;;;;;;12.90;4.90;;;;;;;;;;5072215;28;20418;-65
2023/06/30 06:03:50;;;;;;;12.82;4.80;;;;;;;;;;5074773;28;20422;-65
2023/06/30 06:06:17;;;;;;;13.82;4.88;;;;;;;;;;5078267;28;20465;-63
2023/06/30 06:08:46;;;;;;;10.90;4.53;;;;;;;;;;5077528;28;20965;-65
2023/06/30 06:11:13;;;;;;;12.65;5.13;;;;;;;;;;5073902;28;20534;-65
2023/06/30 06:13:41;;;;;;;10.97;4.60;;;;;;;;;;5077336;28;21018;-64
2023/06/30 06:16:09;;;;;;;9.90;3.85;;;;;;;;;;5072933;28;20456;-65
2023/06/30 06:18:36;;;;;;;9.07;4.07;;;;;;;;;;5077302;28;20418;-68
2023/06/30 06:21:04;;;;;;;12.15;4.30;;;;;;;;;;5078992;28;20410;-64
2023/06/30 06:23:31;;;;;;;12.80;4.80;;;;;;;;;;5073999;28;20426;-63
2023/06/30 06:25:58;;;;;;;10.65;4.43;;;;;;;;;;5080079;28;20413;-61
2023/06/30 06:28:25;;;;;;;9.23;4.70;;;;;;;;;;5073707;28;20492;-62
2023/06/30 06:30:52;;;;;;;9.73;4.78;;;;;;;;;;5075864;28;20435;-61
2023/06/30 06:33:20;;;;;;;10.73;4.57;;;;;;;;;;5079617;28;20475;-63
2023/06/30 06:35:47;;;;;;;8.90;4.03;;;;;;;;;;5076275;28;20420;-63
2023/06/30 06:38:17;;;;;;;11.50;4.13;;;;;;;;;;5058839;28;20507;-63
2023/06/30 06:40:44;;;;;;;9.93;4.27;;;;;;;;;;5080057;28;20412;-63
2023/06/30 06:43:11;;;;;;;12.93;5.10;;;;;;;;;;5073372;28;20412;-65
2023/06/30 06:45:38;;;;;;;12.50;4.90;;;;;;;;;;5080397;28;20411;-64
2023/06/30 06:48:22;;;;;;;9.82;4.22;;;;;;;;;;5080769;28;20442;-64
2023/06/30 06:50:50;;;;;;;11.70;4.63;;;;;;;;;;5082096;28;20552;-64
2023/06/30 06:53:19;;;;;;;7.95;4.18;;;;;;;;;;5081830;28;20461;-63
2023/06/30 06:55:46;;;;;;;9.27;3.40;;;;;;;;;;5081465;28;20488;-62
2023/06/30 06:58:13;;;;;;;8.10;3.38;;;;;;;;;;5080641;28;20514;-63
2023/06/30 07:00:40;;;;;;;8.23;3.30;;;;;;;;;;5075439;28;20467;-68
2023/06/30 07:03:07;;;;;;;8.35;3.10;;;;;;;;;;5080834;28;20807;-63
2023/06/30 07:05:36;;;;;;;9.70;3.60;;;;;;;;;;5081042;28;20419;-64
2023/06/30 07:08:04;;;;;;;6.05;3.03;;;;;;;;;;5074456;28;20423;-63
2023/06/30 07:10:32;;;;;;;7.30;3.03;;;;;;;;;;5074895;28;20530;-63
2023/06/30 07:12:59;;;;;;;12.82;3.50;;;;;;;;;;5078631;28;20420;-63
2023/06/30 07:15:26;;;;;;;8.57;3.33;;;;;;;;;;5080355;28;20420;-62
2023/06/30 07:17:53;;;;;;;8.25;3.45;;;;;;;;;;5077894;28;20419;-66
2023/06/30 07:20:20;;;;;;;9.18;3.00;;;;;;;;;;5077932;28;20463;-64
2023/06/30 07:22:48;;;;;;;8.98;3.20;;;;;;;;;;5081616;28;20892;-64
2023/06/30 07:25:16;;;;;;;8.02;3.13;;;;;;;;;;5081004;28;20477;-64
2023/06/30 07:27:49;;;;;;;6.97;3.13;;;;;;;;;;5082237;28;20425;-65
2023/06/30 07:30:17;;;;;;;6.25;2.80;;;;;;;;;;5074553;28;20480;-65
2023/06/30 07:32:44;;;;;;;6.32;2.92;;;;;;;;;;5073796;28;20534;-64
2023/06/30 07:35:11;;;;;;;8.13;3.15;;;;;;;;;;5080620;28;20419;-64
2023/06/30 07:37:38;;;;;;;8.65;3.10;;;;;;;;;;5080350;28;20419;-67
2023/06/30 07:40:08;;;;;;;6.97;3.07;;;;;;;;;;5076064;28;20419;-63
2023/06/30 07:42:35;;;;;;;9.02;3.22;;;;;;;;;;5072057;28;20408;-65
2023/06/30 07:45:02;;;;;;;8.80;3.22;;;;;;;;;;5081634;28;20822;-65
2023/06/30 07:47:29;;;;;;;5.23;2.50;;;;;;;;;;5076474;28;20418;-63
2023/06/30 07:49:56;;;;;;;8.43;3.20;;;;;;;;;;5080170;28;20415;-63
2023/06/30 07:52:22;;;;;;;6.88;2.88;;;;;;;;;;5079343;28;20473;-62
2023/06/30 07:54:53;;;;;;;6.75;2.47;;;;;;;;;;5076625;28;20417;-62
2023/06/30 07:57:21;;;;;;;5.13;2.55;;;;;;;;;;5084557;28;20755;-65
2023/06/30 07:59:48;;;;;;;6.50;2.42;;;;;;;;;;5076236;28;20423;-63
2023/06/30 08:02:17;;;;;;;6.45;2.03;;;;;;;;;;5078688;28;20419;-63
2023/06/30 08:04:44;;;;;;;7.50;2.27;;;;;;;;;;5076731;28;20508;-65
2023/06/30 08:07:11;;;;;;;5.25;2.17;;;;;;;;;;5078241;28;20419;-65
2023/06/30 08:09:38;;;;;;;5.50;2.05;;;;;;;;;;5079536;28;20422;-66
2023/06/30 08:12:05;;;;;;;4.57;1.93;;;;;;;;;;5079550;28;20424;-65
2023/06/30 08:14:35;;;;;;;7.82;3.80;;;;;;;;;;5079518;28;21093;-65
2023/06/30 08:17:02;;;;;;;6.57;3.50;;;;;;;;;;5080420;28;20412;-67
2023/06/30 08:19:29;;;;;;;6.13;2.03;;;;;;;;;;5081156;28;20439;-67
2023/06/30 08:21:56;;;;;;;5.50;1.83;;;;;;;;;;5079597;28;20411;-66
2023/06/30 08:24:23;;;;;;;5.90;2.10;;;;;;;;;;5080955;28;20420;-65
2023/06/30 08:26:50;;;;;;;6.10;1.80;;;;;;;;;;5082277;28;20425;-63
2023/06/30 08:29:17;;;;;;;4.47;2.00;;;;;;;;;;5079294;28;20420;-64
2023/06/30 08:31:46;;;;;;;4.93;1.73;;;;;;;;;;5073913;28;20435;-63
2023/06/30 08:34:13;;;;;;;8.83;2.10;;;;;;;;;;5082761;28;20415;-64
2023/06/30 08:36:40;;;;;;;6.47;2.13;;;;;;;;;;5075557;28;20421;-64
2023/06/30 08:39:07;;;;;;;6.10;1.98;;;;;;;;;;5072010;28;20415;-65
2023/06/30 08:41:34;;;;;;;4.17;2.00;;;;;;;;;;5081255;28;20411;-64
2023/06/30 08:44:02;;;;;;;6.45;1.80;;;;;;;;;;5073728;28;20414;-64
2023/06/30 08:46:29;;;;;;;6.63;1.70;;;;;;;;;;5077027;28;20811;-64
2023/06/30 08:48:57;;;;;;;4.38;1.55;;;;;;;;;;5077518;28;20421;-64
2023/06/30 08:51:25;;;;;;;4.30;1.80;;;;;;;;;;5078404;28;20451;-64
2023/06/30 08:53:52;;;;;;;3.13;1.52;;;;;;;;;;5076589;28;20882;-64
2023/06/30 08:56:20;;;;;;;5.03;2.00;;;;;;;;;;5075448;28;20419;-64
2023/06/30 08:58:47;;;;;;;5.35;1.90;;;;;;;;;;5080552;28;20410;-64
2023/06/30 09:01:15;;;;;;;6.18;1.83;;;;;;;;;;5080983;28;20410;-64
2023/06/30 09:03:42;;;;;;;4.90;1.73;;;;;;;;;;5075303;28;20482;-65
2023/06/30 09:06:11;;;;;;;4.30;1.90;;;;;;;;;;5078187;28;20430;-65
2023/06/30 09:08:41;;;;;;;8.33;2.20;;;;;;;;;;5074305;28;20598;-65
2023/06/30 09:11:08;;;;;;;4.55;1.60;;;;;;;;;;5070077;28;20904;-65
2023/06/30 09:13:36;;;;;;;5.63;1.80;;;;;;;;;;5070953;28;20434;-65
2023/06/30 09:16:06;;;;;;;4.63;1.65;;;;;;;;;;5079804;28;20749;-65
2023/06/30 09:18:34;;;;;;;4.03;1.60;;;;;;;;;;5081441;28;20410;-63
2023/06/30 09:21:01;;;;;;;4.57;1.90;;;;;;;;;;5077420;28;20407;-63
2023/06/30 09:23:29;;;;;;;5.15;1.50;;;;;;;;;;5071867;28;20467;-63
2023/06/30 09:25:56;;;;;;;5.63;1.52;;;;;;;;;;5077450;28;20774;-63
2023/06/30 09:28:23;;;;;;;4.23;1.80;;;;;;;;;;5077865;28;20420;-62
2023/06/30 09:30:50;;;;;;;4.32;2.10;;;;;;;;;;5080414;28;20428;-64
2023/06/30 09:33:20;;;;;;;4.82;1.90;;;;;;;;;;5076776;28;20748;-62
2023/06/30 09:35:47;;;;;;;7.07;2.05;;;;;;;;;;5080963;28;20472;-63
2023/06/30 09:38:15;;;;;;;5.07;1.98;;;;;;;;;;5065244;28;20444;-63
2023/06/30 09:40:47;;;;;;;6.85;2.00;;;;;;;;;;5073619;28;20419;-63
2023/06/30 09:43:18;;;;;;;5.30;1.73;;;;;;;;;;5079233;28;20409;-65
2023/06/30 09:45:46;;;;;;;5.38;1.70;;;;;;;;;;5077709;28;20411;-62
2023/06/30 09:48:13;;;;;;;4.38;1.70;;;;;;;;;;5076552;28;20470;-61
2023/06/30 09:50:42;;;;;;;3.22;1.50;;;;;;;;;;5076307;28;20415;-62
2023/06/30 09:53:10;;;;;;;4.30;1.55;;;;;;;;;;5077617;28;20499;-66
2023/06/30 09:55:48;;;;;;;2.78;1.35;;;;;;;;;;5078411;28;20423;-64
2023/06/30 09:58:16;;;;;;;3.78;1.33;;;;;;;;;;5074977;28;20499;-62
2023/06/30 10:00:43;;;;;;;4.63;1.30;;;;;;;;;;5079533;28;20821;-64
2023/06/30 10:03:10;;;;;;;4.93;1.60;;;;;;;;;;5075065;28;20421;-63
2023/06/30 10:05:38;;;;;;;11.50;2.10;;;;;;;;;;5080778;28;20463;-63
2023/06/30 10:08:05;;;;;;;3.97;1.63;;;;;;;;;;5076247;28;20456;-63
2023/06/30 10:10:32;;;;;;;3.75;1.75;;;;;;;;;;5076814;28;20420;-63
2023/06/30 10:13:02;;;;;;;5.32;1.58;;;;;;;;;;5080247;28;20425;-64
2023/06/30 10:15:31;;;;;;;3.08;1.42;;;;;;;;;;5077527;28;20426;-63
2023/06/30 10:17:59;;;;;;;3.03;1.35;;;;;;;;;;5081639;28;20422;-63
2023/06/30 10:20:27;;;;;;;2.88;1.30;;;;;;;;;;5082856;28;20405;-63
2023/06/30 10:22:54;;;;;;;4.75;1.75;;;;;;;;;;5084320;28;20748;-64
2023/06/30 10:25:23;;;;;;;4.45;1.30;;;;;;;;;;5077784;28;20961;-62
2023/06/30 10:27:51;;;;;;;4.15;1.67;;;;;;;;;;5084149;28;20467;-61
2023/06/30 10:30:19;;;;;;;5.15;1.50;;;;;;;;;;5081930;28;20419;-62
2023/06/30 10:32:46;;;;;;;4.07;1.40;;;;;;;;;;5079771;28;20509;-63
2023/06/30 10:35:14;;;;;;;3.50;1.60;;;;;;;;;;5080459;28;20423;-64
2023/06/30 10:37:41;;;;;;;4.05;1.48;;;;;;;;;;5082810;28;20418;-63
2023/06/30 10:40:09;;;;;;;3.33;1.33;;;;;;;;;;5081623;28;20425;-64
2023/06/30 10:42:39;;;;;;;2.25;1.30;;;;;;;;;;5081920;28;20418;-65
2023/06/30 10:45:06;;;;;;;6.13;1.60;;;;;;;;;;5075412;28;20421;-64
2023/06/30 10:47:39;;;;;;;4.05;1.30;;;;;;;;;;5082869;28;20417;-64
2023/06/30 10:50:13;;;;;;;1.60;1.05;;;;;;;;;;5076129;28;20514;-66
2023/06/30 10:52:40;;;;;;;3.95;1.20;;;;;;;;;;5081217;28;20506;-64
2023/06/30 10:55:07;;;;;;;3.95;1.27;;;;;;;;;;5084059;28;20425;-64
2023/06/30 10:57:36;;;;;;;4.95;1.50;;;;;;;;;;5082484;28;20465;-63
2023/06/30 11:00:05;;;;;;;3.05;1.42;;;;;;;;;;5080822;28;20423;-65
2023/06/30 11:02:33;;;;;;;3.17;1.20;;;;;;;;;;5080340;28;20420;-63
2023/06/30 11:05:19;;;;;;;3.95;1.40;;;;;;;;;;5077263;28;20777;-64
2023/06/30 11:07:47;;;;;;;4.25;1.23;;;;;;;;;;5077058;28;20450;-66
2023/06/30 11:10:14;;;;;;;4.32;1.20;;;;;;;;;;5080735;28;20422;-65
2023/06/30 11:12:51;;;;;;;2.90;1.38;;;;;;;;;;5079666;28;20424;-65
2023/06/30 11:15:42;;;;;;;3.33;1.50;;;;;;;;;;5081625;28;20477;-67
2023/06/30 11:18:13;;;;;;;2.70;1.38;;;;;;;;;;5057803;28;20536;-64
2023/06/30 11:20:58;;;;;;;3.60;1.27;;;;;;;;;;5077571;28;20444;-66
2023/06/30 11:23:26;;;;;;;4.22;1.40;;;;;;;;;;5079678;28;20418;-65
2023/06/30 11:25:56;;;;;;;4.30;1.30;;;;;;;;;;5082607;28;20414;-65
2023/06/30 11:28:24;;;;;;;3.08;1.30;;;;;;;;;;5078213;28;20414;-65
2023/06/30 11:30:51;;;;;;;3.90;1.73;;;;;;;;;;5082354;28;20976;-65
2023/06/30 11:33:18;;;;;;;3.40;1.40;;;;;;;;;;5078352;28;20422;-65
2023/06/30 11:35:50;;;;;;;3.63;1.40;;;;;;;;;;5083215;28;20837;-64
2023/06/30 11:38:17;;;;;;;4.43;1.45;;;;;;;;;;5075719;28;20406;-62
2023/06/30 11:40:49;;;;;;;2.45;1.10;;;;;;;;;;5081899;28;20459;-63
2023/06/30 11:43:17;;;;;;;4.45;1.50;;;;;;;;;;5073897;28;20416;-64
2023/06/30 11:45:44;;;;;;;3.08;1.30;;;;;;;;;;5076809;28;20422;-64
2023/06/30 11:48:13;;;;;;;2.80;1.17;;;;;;;;;;5070260;28;20411;-63
2023/06/30 11:50:40;;;;;;;2.72;1.20;;;;;;;;;;5076489;28;20474;-63
2023/06/30 11:53:10;;;;;;;3.38;1.40;;;;;;;;;;5080525;28;20429;-63
2023/06/30 11:55:37;;;;;;;4.07;1.30;;;;;;;;;;5092691;28;20459;-63
2023/06/30 11:58:08;;;;;;;2.72;1.35;;;;;;;;;;5090921;28;20906;-63
2023/06/30 12:00:35;;;;;;;2.65;1.20;;;;;;;;;;5081318;28;20420;-63
2023/06/30 12:03:04;;;;;;;3.30;1.30;;;;;;;;;;5079681;28;20746;-64
2023/06/30 12:05:31;;;;;;;3.10;1.20;;;;;;;;;;5081988;28;20513;-61
2023/06/30 12:07:58;;;;;;;2.63;1.23;;;;;;;;;;5079245;28;20425;-62
2023/06/30 12:10:39;;;;;;;2.60;1.38;;;;;;;;;;5084279;28;20414;-61
2023/06/30 12:13:07;;;;;;;3.03;1.17;;;;;;;;;;5079913;28;20509;-63
2023/06/30 12:15:35;;;;;;;2.80;1.30;;;;;;;;;;5081574;28;20410;-64
2023/06/30 12:18:04;;;;;;;2.08;1.30;;;;;;;;;;5082110;28;20418;-64
2023/06/30 12:20:33;;;;;;;3.15;1.20;;;;;;;;;;5077464;28;20461;-62
2023/06/30 12:23:00;;;;;;;4.50;1.33;;;;;;;;;;5082121;28;20464;-65
2023/06/30 12:25:27;;;;;;;3.17;1.33;;;;;;;;;;5079397;28;20868;-62
2023/06/30 12:27:56;;;;;;;4.50;1.55;;;;;;;;;;5081952;28;20881;-62
2023/06/30 12:30:23;;;;;;;2.95;1.40;;;;;;;;;;5076966;28;20796;-63
2023/06/30 12:32:57;;;;;;;4.15;1.60;;;;;;;;;;5081404;28;20498;-63
2023/06/30 12:35:28;;;;;;;6.27;1.87;;;;;;;;;;5074939;28;20500;-63
2023/06/30 12:37:55;;;;;;;6.00;1.80;;;;;;;;;;5083333;28;20489;-63
2023/06/30 12:40:24;;;;;;;5.18;1.75;;;;;;;;;;5075175;28;20414;-63
2023/06/30 12:42:52;;;;;;;3.30;1.20;;;;;;;;;;5081497;28;20410;-64
2023/06/30 12:45:21;;;;;;;2.97;1.50;;;;;;;;;;5076273;28;20784;-64
2023/06/30 12:47:48;;;;;;;5.50;1.42;;;;;;;;;;5078817;28;20414;-66
2023/06/30 12:50:15;;;;;;;4.45;1.60;;;;;;;;;;5075211;28;20489;-66
2023/06/30 12:52:42;;;;;;;5.45;1.50;;;;;;;;;;5076009;28;20837;-66
2023/06/30 12:55:10;;;;;;;4.68;1.35;;;;;;;;;;5064893;28;20427;-67
2023/06/30 12:57:37;;;;;;;3.92;1.40;;;;;;;;;;5082790;28;20500;-66
2023/06/30 13:00:06;;;;;;;3.50;1.33;;;;;;;;;;5089498;28;20412;-66
2023/06/30 13:02:34;;;;;;;4.30;1.50;;;;;;;;;;5070486;28;20406;-64
2023/06/30 13:05:01;;;;;;;4.25;1.92;;;;;;;;;;5075015;28;20415;-64
2023/06/30 13:07:32;;;;;;;5.10;1.50;;;;;;;;;;5072402;28;20655;-63
2023/06/30 13:09:59;;;;;;;3.30;1.33;;;;;;;;;;5073968;28;20423;-65
2023/06/30 13:12:26;;;;;;;3.90;1.40;;;;;;;;;;5079316;28;20431;-65
2023/06/30 13:14:53;;;;;;;3.97;1.90;;;;;;;;;;5064853;28;21357;-63
2023/06/30 13:17:20;;;;;;;4.37;1.77;;;;;;;;;;5071858;28;20594;-63
2023/06/30 13:19:49;;;;;;;4.20;1.50;;;;;;;;;;5075527;28;20499;-64
2023/06/30 13:22:16;;;;;;;4.35;1.45;;;;;;;;;;5081163;28;20413;-63
2023/06/30 13:24:44;;;;;;;5.68;2.00;;;;;;;;;;5075695;28;20407;-63
2023/06/30 13:27:11;;;;;;;4.80;1.80;;;;;;;;;;5074714;28;20435;-63
2023/06/30 13:29:44;;;;;;;3.50;1.67;;;;;;;;;;5076247;28;20955;-63
2023/06/30 13:32:11;;;;;;;3.30;1.50;;;;;;;;;;5080746;28;20904;-66
2023/06/30 13:34:39;;;;;;;4.97;1.80;;;;;;;;;;5080978;28;20532;-64
2023/06/30 13:37:07;;;;;;;3.28;1.30;;;;;;;;;;5077680;28;20619;-63
2023/06/30 13:39:35;;;;;;;2.08;1.35;;;;;;;;;;5077522;28;20411;-64
2023/06/30 13:42:02;;;;;;;3.50;1.50;;;;;;;;;;5078965;28;20957;-63
2023/06/30 13:44:29;;;;;;;3.35;1.40;;;;;;;;;;5077277;28;20424;-64
2023/06/30 13:46:56;;;;;;;4.20;1.60;;;;;;;;;;5079056;28;20787;-64
2023/06/30 13:49:23;;;;;;;3.85;1.73;;;;;;;;;;5072627;28;20420;-64
2023/06/30 13:51:50;;;;;;;4.78;1.88;;;;;;;;;;5076784;28;20927;-64
2023/06/30 13:54:19;;;;;;;2.97;1.73;;;;;;;;;;5079886;28;20421;-64
2023/06/30 13:56:47;;;;;;;4.13;1.60;;;;;;;;;;5080797;28;20752;-64
2023/06/30 13:59:14;;;;;;;4.72;1.63;;;;;;;;;;5079279;28;20411;-64
2023/06/30 14:01:41;;;;;;;3.55;1.48;;;;;;;;;;5077779;28;20472;-65
2023/06/30 14:04:09;;;;;;;4.70;1.50;;;;;;;;;;5074850;28;20500;-65
2023/06/30 14:06:35;;;;;;;3.10;1.55;;;;;;;;;;5077109;28;20415;-64
2023/06/30 14:09:03;;;;;;;3.88;1.70;;;;;;;;;;5072582;28;20472;-63
2023/06/30 14:11:31;;;;;;;4.53;1.70;;;;;;;;;;5068084;28;20834;-64
2023/06/30 14:14:03;;;;;;;3.08;1.48;;;;;;;;;;5077910;28;20454;-65
2023/06/30 14:16:30;;;;;;;5.50;1.50;;;;;;;;;;5078851;28;20423;-63
2023/06/30 14:18:57;;;;;;;5.25;1.73;;;;;;;;;;5076755;28;20420;-64
2023/06/30 14:21:24;;;;;;;2.90;1.40;;;;;;;;;;5079560;28;20870;-64
2023/06/30 14:23:51;;;;;;;3.17;1.60;;;;;;;;;;5079939;28;20406;-64
2023/06/30 14:26:18;;;;;;;5.65;1.50;;;;;;;;;;5077048;28;20404;-63
2023/06/30 14:28:46;;;;;;;3.87;1.80;;;;;;;;;;5080699;28;20476;-64
2023/06/30 14:31:13;;;;;;;3.30;1.40;;;;;;;;;;5075703;28;20495;-63
2023/06/30 14:33:40;;;;;;;5.57;1.80;;;;;;;;;;5079381;28;20426;-63
2023/06/30 14:36:08;;;;;;;4.13;1.58;;;;;;;;;;5080368;28;20490;-63
2023/06/30 14:38:35;;;;;;;5.32;1.80;;;;;;;;;;5069859;28;20473;-64
2023/06/30 14:41:02;;;;;;;3.92;1.58;;;;;;;;;;5070869;28;20822;-64